Brookley Field, Alabama
Current Conditions -  °F | °C
As of 2:53 PM on Saturday 25 Oct 2014 (Local Time) from KBFM Reporting Station
Clear Clear  
Wind Chill: 26°   Ceiling: Unl
Heat Index: 26°   Visibility: 10mi
Dew Point: 12°   Wind: 7mph
Humidity: 42%   Direction: NA
Pressure: 30.07"   Gusts: NA
Location:  30.641°N, 88.065°W
Report Text: KBFM 251953Z AUTO VRB06KT 10SM CLR 26/12 A3007 RMK AO2 SLP180 T02610122
Loading
Personal Weather Stations






























Interactive Weather Map
Tropical Storm Tracking
New forecast layout! Learn more

10-Day Weather Forecast

Advertisements
Track Severe Weather on mobile